createdAt,value
2022-10-11T05:31:34.564Z,5.28
2022-10-11T05:42:17.553Z,5.78
2022-10-11T05:47:41.118Z,5.75
2022-10-11T05:53:03.214Z,6.32
2022-10-11T05:58:25.158Z,6.85
2022-10-11T06:03:46.417Z,6.15
2022-10-11T06:09:07.328Z,6.22
2022-10-11T06:14:32.371Z,5.32
2022-10-11T06:19:53.388Z,7.10
2022-10-11T06:25:14.597Z,6.05
2022-10-11T06:30:35.435Z,6.03
2022-10-11T06:36:01.800Z,5.75
2022-10-11T06:41:28.757Z,4.78
2022-10-11T06:46:51.947Z,5.18
2022-10-11T06:52:13.267Z,5.53
2022-10-11T06:57:33.942Z,5.03
2022-10-11T07:02:54.768Z,4.80
2022-10-11T07:08:15.605Z,5.38
2022-10-11T07:13:37.990Z,5.35
2022-10-11T07:19:01.504Z,4.95
2022-10-11T07:24:22.316Z,4.65
2022-10-11T07:29:44.583Z,5.03
2022-10-11T07:35:05.863Z,4.63
2022-10-11T07:40:27.083Z,4.40
2022-10-11T07:45:53.703Z,3.55
2022-10-11T07:51:18.110Z,4.00
2022-10-11T07:56:40.176Z,3.67
2022-10-11T08:02:01.295Z,4.47
2022-10-11T08:07:21.949Z,4.28
2022-10-11T08:18:03.483Z,5.07
2022-10-11T08:23:24.617Z,4.28
2022-10-11T08:34:06.311Z,4.43
2022-10-11T08:39:27.412Z,3.25
2022-10-11T08:45:10.473Z,3.55
2022-10-11T08:50:33.017Z,3.42
2022-10-11T08:55:55.324Z,3.20
2022-10-11T09:01:21.928Z,2.90
2022-10-11T09:06:53.335Z,3.13
2022-10-11T09:13:02.471Z,3.92
2022-10-11T09:18:42.712Z,2.78
2022-10-11T09:24:06.510Z,2.95
2022-10-11T09:29:49.449Z,3.13
2022-10-11T09:35:21.948Z,3.45
2022-10-11T09:41:19.329Z,3.10
2022-10-11T09:46:42.347Z,2.90
2022-10-11T09:52:06.171Z,3.30
2022-10-11T09:57:29.140Z,2.92
2022-10-11T10:02:52.518Z,3.58
2022-10-11T10:08:24.251Z,2.90
2022-10-11T10:13:55.932Z,3.20
2022-10-11T10:19:25.244Z,3.58
2022-10-11T10:24:49.089Z,3.13
2022-10-11T10:30:09.915Z,3.10
2022-10-11T10:36:03.866Z,2.90
2022-10-11T10:41:26.012Z,3.65
2022-10-11T10:47:05.752Z,3.60
2022-10-11T10:52:37.165Z,3.85
2022-10-11T10:58:15.073Z,3.00
2022-10-11T11:03:52.360Z,2.67
2022-10-11T11:09:29.756Z,2.45
2022-10-11T11:14:59.673Z,3.13
2022-10-11T11:20:24.890Z,3.15
2022-10-11T11:26:10.017Z,2.90
2022-10-11T11:31:40.396Z,2.50
2022-10-11T11:37:11.733Z,2.70
2022-10-11T11:42:50.963Z,2.65
2022-10-11T11:48:18.754Z,2.75
2022-10-11T11:53:51.951Z,3.00
2022-10-11T11:59:26.443Z,2.25
2022-10-11T12:04:49.249Z,2.45
2022-10-11T12:10:31.899Z,2.10
2022-10-11T12:16:12.997Z,2.53
2022-10-11T12:21:40.140Z,2.35
2022-10-11T12:27:43.824Z,2.08
2022-10-11T12:33:16.812Z,2.60
2022-10-11T12:38:40.014Z,2.33
2022-10-11T12:44:28.822Z,2.30
2022-10-11T12:50:20.398Z,2.33
2022-10-11T12:55:53.551Z,2.20
2022-10-11T13:01:18.853Z,2.63
2022-10-11T13:06:49.699Z,3.75
2022-10-11T13:12:18.212Z,2.47
2022-10-11T13:17:40.392Z,2.17
2022-10-11T13:23:01.120Z,3.15
2022-10-11T13:28:23.196Z,2.88
2022-10-11T13:33:45.743Z,2.22
2022-10-11T13:39:07.455Z,2.45
2022-10-11T13:44:30.203Z,1.65
2022-10-11T13:50:22.669Z,1.63
2022-10-11T13:55:54.414Z,1.90
2022-10-11T14:01:37.550Z,2.63
2022-10-11T14:07:02.791Z,2.00
2022-10-11T14:12:39.568Z,1.70
2022-10-11T14:18:02.025Z,1.80
2022-10-11T14:23:23.253Z,2.25
2022-10-11T14:28:44.368Z,2.03
2022-10-11T14:34:05.787Z,2.15
2022-10-11T14:39:29.630Z,1.95
2022-10-11T14:44:50.935Z,1.85
2022-10-11T14:50:35.044Z,2.03
2022-10-11T14:55:56.142Z,2.05
2022-10-11T15:01:17.737Z,2.60
2022-10-11T15:06:40.752Z,2.60
2022-10-11T15:12:01.713Z,2.60
2022-10-11T15:17:22.492Z,2.17
2022-10-11T15:22:43.308Z,2.90
2022-10-11T15:28:04.852Z,2.25
2022-10-11T15:33:26.619Z,2.33
2022-10-11T15:38:48.904Z,2.40
2022-10-11T15:44:09.605Z,2.33
2022-10-11T15:54:51.029Z,2.30
2022-10-11T16:00:12.295Z,2.75
2022-10-11T16:05:33.111Z,2.25
2022-10-11T16:10:54.866Z,2.10
2022-10-11T16:16:16.062Z,2.33
2022-10-11T16:21:36.772Z,2.85
2022-10-11T16:32:18.937Z,2.55
2022-10-11T16:37:40.327Z,2.22
2022-10-11T16:43:07.392Z,2.33
2022-10-11T16:48:28.995Z,2.42
2022-10-11T16:53:50.555Z,2.38
2022-10-11T16:59:12.032Z,1.95
2022-10-11T17:04:33.191Z,1.67
2022-10-11T17:09:53.787Z,2.50
2022-10-11T17:15:14.467Z,2.10
2022-10-11T17:20:35.206Z,2.22
2022-10-11T17:25:56.009Z,3.40
2022-10-11T17:31:17.111Z,3.40
2022-10-11T17:36:38.362Z,3.30
2022-10-11T17:42:04.967Z,3.13
2022-10-11T17:47:26.061Z,2.63
2022-10-11T17:58:08.507Z,3.88
2022-10-11T18:03:29.313Z,3.88
2022-10-11T18:08:50.540Z,4.07
2022-10-11T18:14:11.774Z,4.22
2022-10-11T18:19:32.619Z,4.07
2022-10-11T18:24:53.346Z,3.22
2022-10-11T18:30:14.678Z,3.97
2022-10-11T18:35:35.674Z,4.20
2022-10-11T18:46:17.692Z,4.90
2022-10-11T18:51:42.307Z,5.13
2022-10-11T18:57:03.572Z,4.90
2022-10-11T19:07:45.184Z,4.95
2022-10-11T19:13:06.133Z,4.50
2022-10-11T19:18:26.903Z,4.15
2022-10-11T19:23:48.207Z,4.10
2022-10-11T19:29:20.897Z,4.15
2022-10-11T19:34:41.502Z,4.63
2022-10-11T19:40:03.953Z,4.60
2022-10-11T19:45:24.968Z,4.07
2022-10-11T19:50:45.680Z,3.63
2022-10-11T19:56:15.157Z,4.07
2022-10-11T20:01:36.524Z,3.83
2022-10-11T20:06:57.361Z,3.50
2022-10-11T20:12:18.063Z,3.22
2022-10-11T20:17:48.197Z,4.28
2022-10-11T20:23:09.004Z,3.92
2022-10-11T20:28:31.672Z,3.00
2022-10-11T20:33:58.609Z,3.10
2022-10-11T20:39:19.943Z,2.97
2022-10-11T20:44:40.873Z,2.65
2022-10-11T20:50:01.685Z,3.10
2022-10-11T20:55:22.327Z,3.15
2022-10-11T21:00:43.395Z,3.08
2022-10-11T21:06:04.382Z,3.65
2022-10-11T21:16:46.696Z,4.20
2022-10-11T21:22:07.728Z,3.97
2022-10-11T21:27:28.512Z,4.25
2022-10-11T21:32:50.671Z,4.15
2022-10-11T21:38:12.471Z,3.15
2022-10-11T21:43:35.715Z,2.40
2022-10-11T21:48:57.249Z,2.70
2022-10-11T21:54:18.419Z,2.30
